Time;durP1;ratioP1;P1;durP2;ratioP2;P2;SDS_P1;SDS_P2;PMS_P1;PMS_P2;Temp;Humidity;BMP_temperature;BMP_pressure;BME280_temperature;BME280_humidity;BME280_pressure;Samples;Min_cycle;Max_cycle;Signal;HPM_P1;HPM_P2
2023/09/08 00:02:56;;;;;;;8.90;6.70;;;25.00;57.40;;;;;;229567;1251;22281;-53
2023/09/08 00:07:59;;;;;;;8.90;6.50;;;25.00;57.60;;;;;;229489;1247;22285;-54
2023/09/08 00:13:01;;;;;;;6.60;5.90;;;24.90;57.40;;;;;;229359;1256;203105;-53
2023/09/08 00:18:04;;;;;;;6.40;5.80;;;25.00;57.50;;;;;;229400;1249;22384;-54
2023/09/08 00:23:07;;;;;;;8.30;5.90;;;24.90;57.40;;;;;;229501;1248;22243;-55
2023/09/08 00:28:10;;;;;;;6.20;5.70;;;24.90;57.10;;;;;;229511;1259;22354;-54
2023/09/08 00:33:13;;;;;;;7.60;6.90;;;24.90;57.30;;;;;;229515;1256;22335;-55
2023/09/08 00:38:16;;;;;;;8.50;6.50;;;24.90;57.90;;;;;;229479;1257;22277;-55
2023/09/08 00:43:19;;;;;;;6.90;6.20;;;24.90;57.30;;;;;;229425;1248;22298;-54
2023/09/08 00:48:22;;;;;;;6.90;6.30;;;24.90;57.30;;;;;;229428;1251;22247;-54
2023/09/08 00:53:25;;;;;;;6.20;5.70;;;24.90;56.80;;;;;;229420;1248;23152;-55
2023/09/08 00:58:28;;;;;;;6.60;6.00;;;24.90;57.00;;;;;;229537;1256;22305;-56
2023/09/08 01:03:32;;;;;;;6.50;5.80;;;24.90;57.00;;;;;;229472;1256;22804;-55
2023/09/08 01:08:36;;;;;;;7.20;5.60;;;24.90;57.00;;;;;;229503;1249;22270;-54
2023/09/08 01:13:39;;;;;;;7.70;6.30;;;24.90;56.90;;;;;;229763;1256;22334;-50
2023/09/08 01:18:46;;;;;;;6.60;6.00;;;24.90;57.00;;;;;;230131;1247;22159;-53
2023/09/08 01:23:59;;;;;;;6.10;5.40;;;24.80;56.70;;;;;;230053;1252;22914;-51
2023/09/08 01:29:03;;;;;;;8.30;5.70;;;24.80;57.20;;;;;;229964;1256;22320;-53
2023/09/08 01:34:08;;;;;;;7.50;6.80;;;24.80;57.00;;;;;;229994;1248;22291;-51
2023/09/08 01:39:13;;;;;;;7.00;6.30;;;24.80;56.80;;;;;;230040;1256;22249;-53
2023/09/08 01:44:15;;;;;;;9.70;6.40;;;24.80;56.80;;;;;;230064;1256;22283;-50
2023/09/08 01:49:18;;;;;;;7.30;5.70;;;24.80;57.00;;;;;;230018;1257;22348;-54
2023/09/08 01:54:21;;;;;;;6.90;6.00;;;24.80;56.70;;;;;;230085;1253;22272;-52
2023/09/08 01:59:23;;;;;;;6.20;5.60;;;24.80;56.80;;;;;;230050;1255;22274;-52
2023/09/08 02:04:26;;;;;;;9.40;7.40;;;24.70;56.50;;;;;;228368;1256;22555;-51
2023/09/08 02:09:32;;;;;;;9.30;6.80;;;24.70;56.20;;;;;;221055;1248;22513;-52
2023/09/08 02:14:35;;;;;;;6.20;5.60;;;24.60;56.50;;;;;;229497;1256;23067;-50
2023/09/08 02:19:38;;;;;;;6.80;5.90;;;24.60;56.60;;;;;;229503;1255;23030;-48
2023/09/08 02:24:40;;;;;;;6.70;6.10;;;24.70;56.40;;;;;;229423;1248;22312;-51
2023/09/08 02:29:43;;;;;;;8.40;6.10;;;24.70;56.10;;;;;;229266;1260;22313;-53
2023/09/08 02:34:48;;;;;;;6.60;5.80;;;24.60;55.70;;;;;;229487;1253;22252;-51
2023/09/08 02:39:50;;;;;;;6.90;6.00;;;24.60;55.80;;;;;;229317;1249;22269;-51
2023/09/08 02:44:53;;;;;;;6.40;5.80;;;24.60;55.70;;;;;;229257;1263;22328;-52
2023/09/08 02:49:57;;;;;;;9.90;5.70;;;24.60;55.60;;;;;;229279;1263;22974;-52
2023/09/08 02:54:59;;;;;;;6.80;6.10;;;24.60;56.10;;;;;;229099;1264;22662;-51
2023/09/08 03:00:04;;;;;;;6.00;5.50;;;24.50;55.90;;;;;;221434;1264;24216;-49
2023/09/08 03:05:08;;;;;;;5.70;4.90;;;24.50;55.60;;;;;;228722;1248;23922;-54
2023/09/08 03:10:12;;;;;;;6.70;6.10;;;24.50;55.60;;;;;;221413;1264;22680;-56
2023/09/08 03:15:15;;;;;;;6.40;5.80;;;24.40;55.70;;;;;;229308;1264;22281;-54
2023/09/08 03:20:18;;;;;;;6.00;5.50;;;24.30;55.30;;;;;;225789;1264;25932;-53
2023/09/08 03:25:21;;;;;;;5.80;5.30;;;24.40;55.40;;;;;;229316;1264;22242;-54
2023/09/08 03:30:24;;;;;;;6.30;5.60;;;24.40;55.50;;;;;;229328;1253;22271;-54
2023/09/08 03:35:26;;;;;;;6.00;5.50;;;24.50;55.10;;;;;;229303;1264;22312;-54
2023/09/08 03:40:29;;;;;;;6.40;5.80;;;24.50;55.10;;;;;;229279;1252;22354;-55
2023/09/08 03:45:32;;;;;;;6.40;5.80;;;24.50;55.00;;;;;;229296;1264;22274;-52
2023/09/08 03:50:35;;;;;;;5.90;5.30;;;24.40;55.00;;;;;;229305;1253;22337;-54
2023/09/08 03:55:38;;;;;;;6.00;5.40;;;24.40;55.00;;;;;;229317;1264;22267;-54
2023/09/08 04:00:40;;;;;;;6.10;5.50;;;24.40;55.10;;;;;;229336;1254;23085;-53
2023/09/08 04:05:43;;;;;;;6.30;5.70;;;24.30;55.10;;;;;;229295;1264;22336;-54
2023/09/08 04:10:46;;;;;;;6.60;6.00;;;24.30;55.10;;;;;;229243;1254;22251;-55
2023/09/08 04:15:48;;;;;;;6.40;5.80;;;24.30;55.10;;;;;;229223;1264;22298;-54
2023/09/08 04:20:51;;;;;;;6.20;5.70;;;24.30;55.30;;;;;;225450;1249;24253;-52
2023/09/08 04:25:54;;;;;;;5.70;5.10;;;24.20;55.20;;;;;;229258;1263;23294;-55
2023/09/08 04:30:57;;;;;;;6.30;5.60;;;24.20;55.30;;;;;;229268;1264;22238;-54
2023/09/08 04:36:00;;;;;;;5.90;5.40;;;24.20;55.30;;;;;;229281;1264;22267;-52
2023/09/08 04:41:03;;;;;;;6.60;5.90;;;24.20;55.00;;;;;;229260;1264;23130;-54
2023/09/08 04:46:06;;;;;;;5.90;5.20;;;24.20;55.10;;;;;;229212;1264;22280;-53
2023/09/08 04:51:08;;;;;;;6.40;5.50;;;24.20;55.20;;;;;;229294;1252;22298;-54
2023/09/08 04:56:13;;;;;;;6.20;5.50;;;24.20;55.20;;;;;;229235;1256;22291;-53
2023/09/08 05:01:17;;;;;;;15.90;6.10;;;24.20;55.30;;;;;;229326;1252;22249;-54
2023/09/08 05:06:20;;;;;;;6.10;5.60;;;24.20;55.40;;;;;;229314;1264;22576;-53
2023/09/08 05:11:23;;;;;;;7.20;6.40;;;24.10;55.50;;;;;;229262;1264;22250;-54
2023/09/08 05:16:36;;;;;;;6.50;6.00;;;24.20;55.60;;;;;;229310;1264;22824;-53
2023/09/08 05:21:41;;;;;;;16.80;6.80;;;24.10;55.70;;;;;;229345;1252;23188;-54
2023/09/08 05:26:44;;;;;;;15.80;6.60;;;24.20;56.50;;;;;;229287;1253;22301;-57
2023/09/08 05:31:47;;;;;;;7.30;6.60;;;24.20;56.20;;;;;;222898;1256;22569;-56
2023/09/08 05:36:49;;;;;;;7.30;6.60;;;24.20;57.00;;;;;;229327;1252;22308;-55
2023/09/08 05:41:52;;;;;;;8.90;6.70;;;24.20;57.10;;;;;;229299;1252;22313;-56
2023/09/08 05:46:55;;;;;;;8.50;6.30;;;24.30;57.40;;;;;;229358;1249;23038;-58
2023/09/08 05:51:59;;;;;;;13.20;5.80;;;24.40;57.60;;;;;;229347;1253;22644;-56
2023/09/08 05:57:03;;;;;;;10.60;6.70;;;24.50;57.50;;;;;;229329;1264;22240;-55
2023/09/08 06:02:06;;;;;;;6.70;6.00;;;24.50;57.80;;;;;;229272;1252;23360;-58
2023/09/08 06:07:09;;;;;;;8.70;6.40;;;24.60;57.60;;;;;;229354;1254;22383;-57
2023/09/08 06:12:12;;;;;;;13.10;6.40;;;24.60;57.50;;;;;;229329;1253;23197;-57
2023/09/08 06:17:15;;;;;;;10.90;6.60;;;24.70;57.50;;;;;;229149;1256;22321;-58
2023/09/08 06:22:18;;;;;;;11.90;6.10;;;24.70;57.80;;;;;;229182;1249;22279;-56
2023/09/08 06:27:21;;;;;;;8.70;5.80;;;24.60;58.10;;;;;;229279;1253;22282;-57
2023/09/08 06:32:23;;;;;;;15.20;6.70;;;24.50;58.40;;;;;;229152;1264;22251;-57
2023/09/08 06:37:26;;;;;;;9.70;6.20;;;24.70;58.20;;;;;;229245;1253;22323;-57
2023/09/08 06:42:30;;;;;;;11.20;6.00;;;24.60;58.90;;;;;;229282;1249;22952;-57
2023/09/08 06:47:40;;;;;;;9.80;6.30;;;24.60;58.40;;;;;;229267;1252;22492;-58
2023/09/08 06:52:44;;;;;;;15.70;6.60;;;24.70;58.40;;;;;;229202;1252;22782;-56
2023/09/08 06:57:46;;;;;;;17.30;7.00;;;24.80;58.10;;;;;;229244;1248;23099;-55
2023/09/08 07:02:49;;;;;;;15.70;7.10;;;24.60;58.60;;;;;;229243;1252;22337;-57
2023/09/08 07:07:53;;;;;;;10.20;6.10;;;24.70;58.50;;;;;;229268;1252;22483;-57
2023/09/08 07:12:56;;;;;;;11.00;6.90;;;24.80;58.50;;;;;;229304;1253;23054;-58
2023/09/08 07:17:59;;;;;;;12.90;6.60;;;24.80;58.60;;;;;;229285;1249;22426;-54
2023/09/08 07:23:01;;;;;;;8.90;6.70;;;25.00;58.00;;;;;;229244;1253;23199;-55
2023/09/08 07:28:04;;;;;;;6.70;6.10;;;25.10;57.70;;;;;;229325;1251;22280;-57
2023/09/08 07:33:08;;;;;;;9.50;6.30;;;25.10;57.70;;;;;;229246;1248;23071;-55
2023/09/08 07:38:11;;;;;;;9.70;6.00;;;25.10;57.70;;;;;;229289;1253;22286;-57
2023/09/08 07:43:13;;;;;;;10.30;6.60;;;24.90;58.60;;;;;;229322;1250;22318;-55
2023/09/08 07:48:17;;;;;;;8.70;6.40;;;24.90;58.90;;;;;;229253;1253;22307;-59
2023/09/08 07:53:20;;;;;;;21.20;7.30;;;24.90;58.70;;;;;;229300;1253;22293;-55
2023/09/08 07:58:22;;;;;;;14.10;6.80;;;25.00;58.70;;;;;;229249;1252;22349;-58
2023/09/08 08:03:25;;;;;;;8.50;6.30;;;25.10;58.40;;;;;;229236;1252;22268;-58
2023/09/08 08:08:38;;;;;;;7.10;6.40;;;25.20;58.20;;;;;;229202;1254;22330;-57
2023/09/08 08:13:58;;;;;;;9.40;6.70;;;25.20;58.30;;;;;;229306;1253;22260;-57
2023/09/08 08:19:01;;;;;;;8.30;6.40;;;25.30;58.10;;;;;;229202;1248;22309;-58
2023/09/08 08:24:04;;;;;;;10.00;6.80;;;25.30;58.20;;;;;;229311;1248;22364;-56
2023/09/08 08:29:07;;;;;;;12.50;7.50;;;25.30;58.40;;;;;;229351;1257;22312;-59
2023/09/08 08:34:10;;;;;;;12.50;8.40;;;25.30;58.30;;;;;;229242;1251;22322;-58
2023/09/08 08:39:12;;;;;;;10.50;8.30;;;25.30;58.80;;;;;;229264;1250;22257;-54
2023/09/08 08:44:20;;;;;;;12.80;8.90;;;25.20;58.90;;;;;;229296;1248;22684;-58
2023/09/08 08:49:23;;;;;;;11.20;9.00;;;25.40;58.50;;;;;;229316;1248;22302;-58
2023/09/08 08:54:26;;;;;;;13.70;10.70;;;25.20;59.20;;;;;;229371;1253;22280;-57
2023/09/08 08:59:29;;;;;;;13.60;9.80;;;25.30;59.20;;;;;;229352;1248;22248;-56
2023/09/08 09:04:33;;;;;;;10.70;9.70;;;25.40;59.30;;;;;;229380;1248;22237;-57
2023/09/08 09:09:35;;;;;;;10.40;9.30;;;25.50;59.00;;;;;;229384;1248;22229;-56
2023/09/08 09:14:44;;;;;;;13.70;10.50;;;25.40;59.40;;;;;;229361;1248;22257;-56
2023/09/08 09:19:47;;;;;;;12.30;10.10;;;25.60;59.20;;;;;;229392;1248;22426;-56
2023/09/08 09:24:50;;;;;;;11.40;10.10;;;25.50;59.00;;;;;;229339;1248;22355;-56
2023/09/08 09:29:53;;;;;;;10.40;9.40;;;25.50;59.20;;;;;;229333;1253;22275;-55
2023/09/08 09:34:57;;;;;;;11.30;9.00;;;25.70;59.20;;;;;;229399;1248;22350;-54
2023/09/08 09:40:00;;;;;;;10.80;9.50;;;25.70;58.80;;;;;;229322;1248;22394;-56
2023/09/08 09:45:04;;;;;;;10.80;9.20;;;25.90;58.60;;;;;;229398;1248;22281;-55
2023/09/08 09:50:07;;;;;;;10.90;9.30;;;25.80;58.40;;;;;;229358;1248;22307;-56
2023/09/08 09:55:10;;;;;;;10.00;8.50;;;25.90;58.30;;;;;;229480;1248;22276;-53
2023/09/08 10:00:14;;;;;;;9.70;8.20;;;26.00;58.00;;;;;;229424;1251;22267;-56
2023/09/08 10:05:18;;;;;;;8.80;7.90;;;25.90;58.00;;;;;;229387;1248;22295;-55
2023/09/08 10:10:22;;;;;;;10.10;8.40;;;26.00;58.20;;;;;;229354;1248;23605;-55
2023/09/08 10:15:24;;;;;;;9.10;8.20;;;26.10;58.10;;;;;;229363;1257;23077;-55
2023/09/08 10:20:28;;;;;;;11.20;8.80;;;26.20;57.80;;;;;;229345;1251;24060;-56
2023/09/08 10:25:35;;;;;;;10.40;8.20;;;26.30;57.80;;;;;;229440;1248;22620;-57
2023/09/08 10:30:38;;;;;;;10.80;8.20;;;26.50;57.70;;;;;;229373;1253;22411;-54
2023/09/08 10:35:43;;;;;;;9.40;8.30;;;26.60;57.30;;;;;;229397;1248;23178;-57
2023/09/08 10:40:45;;;;;;;9.90;8.40;;;26.60;57.50;;;;;;229395;1248;23471;-56
2023/09/08 10:45:48;;;;;;;8.70;7.70;;;26.60;57.20;;;;;;229379;1248;23123;-58
2023/09/08 10:50:51;;;;;;;9.10;8.20;;;26.80;56.60;;;;;;229337;1248;23376;-57
2023/09/08 10:55:54;;;;;;;10.90;8.10;;;26.80;56.50;;;;;;229327;1264;22322;-57
2023/09/08 11:01:01;;;;;;;8.40;7.50;;;26.90;56.00;;;;;;229362;1253;22246;-57
2023/09/08 11:06:05;;;;;;;9.10;7.50;;;27.00;55.80;;;;;;229403;1254;22360;-57
2023/09/08 11:11:07;;;;;;;9.60;7.40;;;27.10;55.40;;;;;;229314;1263;22285;-57
2023/09/08 11:16:10;;;;;;;9.60;8.00;;;27.10;54.80;;;;;;229327;1264;22236;-57
2023/09/08 11:21:13;;;;;;;9.60;7.60;;;27.10;54.60;;;;;;229325;1264;22278;-57
2023/09/08 11:26:16;;;;;;;9.60;7.80;;;27.20;54.50;;;;;;229382;1263;22281;-57
2023/09/08 11:31:19;;;;;;;11.20;7.30;;;27.40;53.70;;;;;;229324;1263;22372;-58
2023/09/08 11:36:21;;;;;;;7.30;6.60;;;27.40;53.50;;;;;;229332;1264;23342;-57
2023/09/08 11:41:24;;;;;;;8.10;6.30;;;27.30;53.00;;;;;;229352;1263;22406;-58
2023/09/08 11:46:27;;;;;;;7.30;6.70;;;27.30;53.50;;;;;;229398;1263;22694;-55
2023/09/08 11:51:30;;;;;;;6.80;6.00;;;27.40;52.80;;;;;;229359;1249;22308;-57
2023/09/08 11:56:33;;;;;;;8.80;6.40;;;27.70;52.10;;;;;;229256;1250;22276;-59
2023/09/08 12:01:36;;;;;;;11.60;6.10;;;27.50;52.00;;;;;;229363;1249;22333;-57
2023/09/08 12:06:39;;;;;;;7.10;6.50;;;27.40;52.90;;;;;;229316;1263;22339;-53
2023/09/08 12:11:42;;;;;;;6.30;5.80;;;27.30;53.20;;;;;;229033;1248;391356;-51
2023/09/08 12:16:45;;;;;;;7.00;6.40;;;27.30;53.60;;;;;;229315;1264;22680;-51
2023/09/08 12:21:56;;;;;;;6.90;6.30;;;27.30;53.80;;;;;;229309;1263;22719;-55
2023/09/08 12:27:02;;;;;;;7.00;6.30;;;27.30;53.90;;;;;;229371;1248;22765;-56
2023/09/08 12:32:05;;;;;;;7.00;6.20;;;27.40;53.90;;;;;;229352;1264;22266;-55
2023/09/08 12:37:10;;;;;;;6.60;5.90;;;27.40;54.10;;;;;;229425;1249;22309;-55
2023/09/08 12:42:13;;;;;;;8.30;6.90;;;27.40;53.80;;;;;;229357;1263;22363;-55
2023/09/08 12:47:15;;;;;;;6.50;5.70;;;27.40;53.70;;;;;;229372;1263;22296;-55
2023/09/08 12:52:18;;;;;;;7.30;5.80;;;27.40;53.80;;;;;;229406;1257;22337;-54
2023/09/08 12:57:21;;;;;;;7.30;6.20;;;27.40;54.00;;;;;;229424;1263;23140;-55
2023/09/08 13:02:24;;;;;;;6.30;5.80;;;27.30;54.00;;;;;;229458;1264;22268;-54
2023/09/08 13:07:27;;;;;;;6.70;5.50;;;27.40;54.10;;;;;;229463;1252;22311;-54
2023/09/08 13:12:31;;;;;;;6.50;5.90;;;27.40;53.60;;;;;;229367;1256;22210;-55
2023/09/08 13:17:34;;;;;;;10.10;5.40;;;27.70;52.20;;;;;;229484;1250;23058;-57
2023/09/08 13:22:37;;;;;;;6.20;5.50;;;27.90;51.30;;;;;;229418;1252;22273;-55
2023/09/08 13:27:43;;;;;;;6.10;5.70;;;27.80;51.90;;;;;;229437;1249;22294;-55
2023/09/08 13:32:46;;;;;;;6.60;5.60;;;27.60;52.70;;;;;;229390;1263;22392;-55
2023/09/08 13:37:49;;;;;;;6.20;5.70;;;27.50;52.80;;;;;;229404;1263;22286;-54
2023/09/08 13:42:53;;;;;;;6.20;5.60;;;27.60;52.70;;;;;;229406;1254;22337;-57
2023/09/08 13:47:56;;;;;;;6.20;5.60;;;27.70;52.20;;;;;;229359;1263;22264;-57
2023/09/08 13:53:00;;;;;;;7.40;5.40;;;27.60;50.30;;;;;;229305;1248;22243;-57
2023/09/08 13:58:05;;;;;;;7.00;6.30;;;27.00;49.50;;;;;;229416;1253;22262;-57
2023/09/08 14:03:11;;;;;;;6.60;6.00;;;26.60;49.00;;;;;;229443;1257;23127;-55
2023/09/08 14:08:17;;;;;;;6.80;5.30;;;26.40;48.50;;;;;;229376;1263;22297;-57
2023/09/08 14:13:32;;;;;;;6.50;5.00;;;26.10;47.10;;;;;;229366;1248;22392;-56
2023/09/08 14:18:35;;;;;;;5.00;4.60;;;25.70;46.80;;;;;;229357;1263;22271;-57
2023/09/08 14:23:38;;;;;;;5.80;5.20;;;25.80;45.30;;;;;;229381;1258;22254;-56
2023/09/08 14:28:42;;;;;;;5.20;4.80;;;25.80;45.00;;;;;;229217;1263;22273;-56
2023/09/08 14:33:45;;;;;;;5.50;5.00;;;25.70;44.60;;;;;;229457;1248;22321;-57
2023/09/08 14:38:48;;;;;;;5.30;4.80;;;25.40;44.40;;;;;;229330;1263;22272;-56
2023/09/08 14:43:51;;;;;;;5.40;5.00;;;25.20;45.10;;;;;;229420;1261;22262;-56
2023/09/08 14:48:55;;;;;;;5.50;4.90;;;25.20;44.40;;;;;;229401;1263;22293;-56
2023/09/08 14:53:58;;;;;;;5.10;4.70;;;25.10;44.00;;;;;;229386;1249;22495;-56
2023/09/08 14:59:01;;;;;;;5.70;5.20;;;24.80;43.90;;;;;;229388;1249;22394;-58
2023/09/08 15:04:04;;;;;;;7.60;4.60;;;24.40;44.10;;;;;;229356;1263;22801;-55
2023/09/08 15:09:08;;;;;;;5.50;5.10;;;24.40;44.10;;;;;;229330;1260;22348;-57
2023/09/08 15:14:12;;;;;;;5.50;4.70;;;24.30;44.20;;;;;;229364;1263;22307;-56
2023/09/08 15:19:15;;;;;;;5.10;4.60;;;24.10;43.70;;;;;;229390;1252;22394;-55
2023/09/08 15:24:18;;;;;;;6.20;4.80;;;24.00;43.60;;;;;;229388;1263;22271;-54
2023/09/08 15:29:22;;;;;;;5.10;4.70;;;23.70;43.50;;;;;;229329;1249;22221;-53
2023/09/08 15:34:26;;;;;;;12.10;4.90;;;23.60;43.80;;;;;;229352;1256;22271;-54
2023/09/08 15:39:29;;;;;;;6.30;4.10;;;24.10;44.90;;;;;;229348;1249;22267;-54
2023/09/08 15:44:32;;;;;;;6.00;4.60;;;24.60;45.70;;;;;;229328;1257;22324;-54
2023/09/08 15:49:35;;;;;;;5.10;4.50;;;24.90;45.10;;;;;;229351;1248;23175;-55
2023/09/08 15:54:39;;;;;;;5.60;5.00;;;25.30;45.70;;;;;;229343;1248;23574;-55
2023/09/08 15:59:42;;;;;;;7.50;5.00;;;25.60;46.10;;;;;;229296;1256;22281;-55
2023/09/08 16:04:46;;;;;;;11.90;5.50;;;25.60;47.30;;;;;;229302;1256;22303;-55
2023/09/08 16:09:50;;;;;;;6.70;4.90;;;25.90;47.50;;;;;;229245;1255;22280;-54
2023/09/08 16:14:53;;;;;;;12.20;4.60;;;25.80;48.30;;;;;;229293;1252;23200;-55
2023/09/08 16:19:57;;;;;;;7.50;4.80;;;25.80;48.90;;;;;;229290;1260;22339;-55
2023/09/08 16:25:00;;;;;;;6.10;5.20;;;25.90;49.60;;;;;;229263;1264;22391;-53
2023/09/08 16:30:05;;;;;;;8.50;5.10;;;26.00;50.30;;;;;;229306;1249;22308;-54
2023/09/08 16:35:08;;;;;;;10.10;5.40;;;26.00;50.70;;;;;;229224;1257;22258;-54
2023/09/08 16:40:11;;;;;;;5.70;5.20;;;26.30;52.70;;;;;;229335;1249;22353;-53
2023/09/08 16:45:14;;;;;;;6.10;4.80;;;26.20;53.70;;;;;;229284;1263;22279;-53
2023/09/08 16:50:18;;;;;;;10.10;5.10;;;26.30;55.00;;;;;;229315;1263;22269;-54
2023/09/08 16:55:21;;;;;;;17.10;5.30;;;26.30;56.20;;;;;;229312;1263;22264;-55
2023/09/08 17:00:24;;;;;;;11.20;5.20;;;26.10;57.10;;;;;;229353;1263;23077;-56
2023/09/08 17:05:27;;;;;;;8.10;5.00;;;26.00;57.90;;;;;;229295;1263;22241;-55
2023/09/08 17:10:30;;;;;;;8.30;5.40;;;26.00;57.70;;;;;;229347;1258;22257;-56
2023/09/08 17:15:34;;;;;;;9.80;4.70;;;26.00;57.50;;;;;;229264;1249;22270;-56
2023/09/08 17:20:37;;;;;;;10.20;5.40;;;26.10;57.70;;;;;;229288;1263;22280;-56
2023/09/08 17:25:40;;;;;;;10.50;5.60;;;26.10;57.40;;;;;;229275;1256;22276;-57
2023/09/08 17:30:43;;;;;;;10.80;5.30;;;26.30;57.20;;;;;;229373;1247;22286;-58
2023/09/08 17:35:49;;;;;;;12.10;6.00;;;26.20;57.30;;;;;;229350;1247;22327;-58
2023/09/08 17:40:52;;;;;;;13.90;5.20;;;26.20;57.40;;;;;;229299;1248;22272;-57
2023/09/08 17:46:01;;;;;;;8.50;5.60;;;26.20;57.80;;;;;;229330;1251;23832;-57
2023/09/08 17:51:07;;;;;;;10.30;5.90;;;26.10;57.70;;;;;;229362;1247;22747;-59
2023/09/08 17:56:10;;;;;;;9.40;7.30;;;26.10;57.60;;;;;;229445;1246;22338;-58
2023/09/08 18:01:13;;;;;;;10.90;6.90;;;26.00;57.50;;;;;;229375;1256;22260;-60
2023/09/08 18:06:16;;;;;;;14.60;7.80;;;26.00;57.80;;;;;;229325;1248;23317;-60
2023/09/08 18:11:20;;;;;;;8.00;6.90;;;25.80;58.40;;;;;;229258;1254;22302;-58
2023/09/08 18:16:24;;;;;;;8.80;7.40;;;25.80;57.80;;;;;;229400;1251;22414;-58
2023/09/08 18:21:27;;;;;;;13.50;8.00;;;25.60;58.50;;;;;;229403;1256;22346;-60
2023/09/08 18:26:31;;;;;;;10.70;9.50;;;25.40;59.40;;;;;;229441;1248;22288;-57
2023/09/08 18:31:39;;;;;;;18.90;10.00;;;25.40;59.20;;;;;;229319;1253;22821;-57
2023/09/08 18:36:45;;;;;;;13.70;10.00;;;25.40;59.00;;;;;;229348;1251;22292;-56
2023/09/08 18:41:48;;;;;;;12.30;9.60;;;25.30;59.10;;;;;;229346;1247;22314;-56
2023/09/08 18:46:53;;;;;;;12.10;9.80;;;25.30;59.40;;;;;;229397;1248;23095;-56
2023/09/08 18:51:56;;;;;;;16.90;10.30;;;25.20;59.70;;;;;;229303;1254;22275;-55
2023/09/08 18:57:03;;;;;;;20.10;10.80;;;25.20;60.30;;;;;;229449;1247;22262;-56
2023/09/08 19:02:06;;;;;;;15.40;11.00;;;25.10;59.90;;;;;;229134;1252;23951;-56
2023/09/08 19:07:11;;;;;;;17.50;11.10;;;24.90;60.20;;;;;;229364;1252;22357;-56
2023/09/08 19:12:15;;;;;;;21.60;12.40;;;24.90;60.50;;;;;;229566;1247;22343;-58
2023/09/08 19:17:18;;;;;;;25.80;12.70;;;24.80;60.20;;;;;;229570;1250;22287;-59
2023/09/08 19:22:27;;;;;;;21.10;12.50;;;24.90;60.20;;;;;;229514;1250;23400;-57
2023/09/08 19:27:35;;;;;;;20.50;12.50;;;24.60;60.30;;;;;;229590;1249;22277;-57
2023/09/08 19:32:40;;;;;;;21.40;12.20;;;24.60;60.40;;;;;;229579;1247;22419;-58
2023/09/08 19:37:46;;;;;;;20.60;12.30;;;24.50;60.60;;;;;;229588;1247;22305;-57
2023/09/08 19:42:50;;;;;;;16.90;12.00;;;24.50;60.90;;;;;;229552;1252;22260;-58
2023/09/08 19:47:56;;;;;;;16.10;11.00;;;24.50;61.10;;;;;;229535;1252;22239;-60
2023/09/08 19:53:00;;;;;;;16.80;10.70;;;24.40;61.10;;;;;;229532;1249;22257;-58
2023/09/08 19:58:03;;;;;;;15.00;10.10;;;24.20;61.50;;;;;;229542;1250;22360;-57
2023/09/08 20:03:07;;;;;;;16.50;11.20;;;24.00;61.60;;;;;;229587;1254;24011;-57
2023/09/08 20:08:11;;;;;;;20.70;10.50;;;23.90;61.60;;;;;;229509;1252;22276;-57
2023/09/08 20:13:15;;;;;;;13.60;10.60;;;24.10;61.40;;;;;;229565;1249;22286;-57
2023/09/08 20:18:19;;;;;;;13.20;10.50;;;24.10;61.50;;;;;;229526;1248;22282;-56
2023/09/08 20:23:27;;;;;;;15.00;11.10;;;24.10;61.20;;;;;;229679;1251;22252;-56
2023/09/08 20:28:31;;;;;;;15.70;11.40;;;24.00;60.90;;;;;;229615;1252;22251;-57
2023/09/08 20:33:42;;;;;;;17.60;10.80;;;23.70;61.90;;;;;;229616;1252;22371;-58
2023/09/08 20:38:46;;;;;;;14.00;10.00;;;23.70;61.90;;;;;;229432;1257;22303;-58
2023/09/08 20:43:49;;;;;;;12.40;9.40;;;23.70;61.50;;;;;;229588;1253;22271;-57
2023/09/08 20:48:53;;;;;;;13.20;9.90;;;23.60;61.80;;;;;;229537;1250;24090;-61
2023/09/08 20:53:59;;;;;;;12.40;9.40;;;23.70;61.60;;;;;;229635;1252;23474;-60
2023/09/08 20:59:09;;;;;;;11.20;8.80;;;23.80;61.00;;;;;;229555;1255;22719;-62
2023/09/08 21:04:13;;;;;;;10.30;8.90;;;23.90;60.90;;;;;;229606;1255;22266;-59
2023/09/08 21:09:16;;;;;;;12.20;9.40;;;23.80;60.90;;;;;;229586;1255;22277;-61
2023/09/08 21:14:19;;;;;;;13.60;8.40;;;23.70;60.90;;;;;;229588;1255;22336;-59
2023/09/08 21:19:22;;;;;;;12.80;8.40;;;23.80;60.70;;;;;;229509;1256;22522;-60
2023/09/08 21:24:25;;;;;;;12.50;8.90;;;23.80;60.50;;;;;;229580;1256;22357;-60
2023/09/08 21:29:28;;;;;;;9.80;8.50;;;23.70;60.50;;;;;;229587;1250;23062;-60
2023/09/08 21:34:30;;;;;;;9.30;8.00;;;23.60;60.60;;;;;;229583;1248;23155;-59
2023/09/08 21:39:33;;;;;;;9.60;8.00;;;23.50;60.50;;;;;;229547;1250;22271;-60
2023/09/08 21:44:37;;;;;;;12.30;8.70;;;23.50;60.40;;;;;;229585;1256;22677;-59
2023/09/08 21:49:39;;;;;;;8.60;7.80;;;23.50;60.80;;;;;;229549;1256;22480;-59
2023/09/08 21:54:42;;;;;;;9.00;8.10;;;23.50;60.80;;;;;;229554;1247;22264;-61
2023/09/08 21:59:45;;;;;;;9.10;7.90;;;23.70;60.90;;;;;;229597;1252;22645;-61
2023/09/08 22:04:47;;;;;;;10.30;8.40;;;24.10;60.00;;;;;;229548;1251;23511;-61
2023/09/08 22:09:53;;;;;;;11.10;8.10;;;24.20;59.50;;;;;;229583;1252;22355;-61
2023/09/08 22:14:56;;;;;;;9.90;8.20;;;24.30;59.10;;;;;;229634;1252;22236;-62
2023/09/08 22:19:59;;;;;;;8.10;7.30;;;24.30;59.20;;;;;;229626;1254;22409;-61
2023/09/08 22:25:02;;;;;;;10.30;7.90;;;24.40;59.00;;;;;;229625;1254;22354;-61
2023/09/08 22:30:06;;;;;;;9.20;7.20;;;24.40;59.10;;;;;;229602;1255;22285;-61
2023/09/08 22:35:10;;;;;;;10.00;7.50;;;24.40;59.10;;;;;;229593;1254;22275;-62
2023/09/08 22:40:13;;;;;;;8.50;7.40;;;24.40;58.90;;;;;;229363;1255;22331;-62
2023/09/08 22:45:16;;;;;;;11.30;8.20;;;24.40;59.10;;;;;;229577;1256;22280;-62
2023/09/08 22:50:19;;;;;;;8.50;7.60;;;24.50;59.10;;;;;;229556;1254;22257;-61
2023/09/08 22:55:22;;;;;;;8.70;7.90;;;24.50;59.70;;;;;;229507;1254;22406;-61
2023/09/08 23:00:28;;;;;;;7.80;7.10;;;24.50;59.00;;;;;;229548;1251;22243;-60
2023/09/08 23:05:30;;;;;;;8.80;7.90;;;24.60;59.00;;;;;;229602;1255;23298;-60
2023/09/08 23:10:34;;;;;;;9.00;8.10;;;24.60;58.90;;;;;;229603;1254;22255;-60
2023/09/08 23:15:36;;;;;;;9.50;7.90;;;24.70;58.90;;;;;;229592;1257;22318;-61
2023/09/08 23:20:40;;;;;;;10.60;8.30;;;24.70;58.70;;;;;;229611;1254;22516;-61
2023/09/08 23:25:43;;;;;;;8.70;7.90;;;24.70;58.90;;;;;;229611;1256;22391;-61
2023/09/08 23:30:49;;;;;;;11.60;8.70;;;24.70;59.20;;;;;;229609;1256;22260;-60
2023/09/08 23:35:51;;;;;;;10.60;8.30;;;24.70;59.40;;;;;;229675;1250;22275;-61
2023/09/08 23:40:54;;;;;;;9.10;8.20;;;24.70;59.60;;;;;;229613;1256;22337;-60
2023/09/08 23:45:58;;;;;;;8.40;7.60;;;24.70;59.60;;;;;;229669;1252;22631;-61
2023/09/08 23:51:01;;;;;;;9.40;8.50;;;24.80;59.60;;;;;;229537;1257;22254;-62
2023/09/08 23:56:03;;;;;;;9.70;8.70;;;24.80;59.70;;;;;;229699;1253;22270;-61
